Time;durP1;ratioP1;P1;durP2;ratioP2;P2;SDS_P1;SDS_P2;PMS_P1;PMS_P2;Temp;Humidity;BMP_temperature;BMP_pressure;BME280_temperature;BME280_humidity;BME280_pressure;Samples;Min_cycle;Max_cycle;Signal;HPM_P1;HPM_P2
2021/12/28 00:00:33;;;;;;;42.03;15.90;;;;;;;;;;6225778;28;20047;-80
2021/12/28 00:03:37;;;;;;;47.13;16.08;;;;;;;;;;6232407;28;20491;-80
2021/12/28 00:06:38;;;;;;;48.50;15.27;;;;;;;;;;6219673;28;20077;-81
2021/12/28 00:09:40;;;;;;;42.17;14.23;;;;;;;;;;6243838;28;20049;-78
2021/12/28 00:12:43;;;;;;;41.05;13.50;;;;;;;;;;6249104;28;20132;-79
2021/12/28 00:18:48;;;;;;;31.55;10.90;;;;;;;;;;6252651;28;20033;-78
2021/12/28 00:21:50;;;;;;;29.98;10.40;;;;;;;;;;6252382;28;20058;-80
2021/12/28 00:24:52;;;;;;;24.70;8.65;;;;;;;;;;6261347;28;20045;-80
2021/12/28 00:27:53;;;;;;;26.27;8.65;;;;;;;;;;6239910;28;20046;-79
2021/12/28 00:30:55;;;;;;;108.40;38.15;;;;;;;;;;6225522;28;20061;-78
2021/12/28 00:33:58;;;;;;;137.15;50.28;;;;;;;;;;6243217;28;20047;-78
2021/12/28 00:37:00;;;;;;;35.53;13.73;;;;;;;;;;6251829;28;20108;-78
2021/12/28 00:40:03;;;;;;;30.13;12.90;;;;;;;;;;6266001;28;20043;-79
2021/12/28 00:43:05;;;;;;;33.42;13.73;;;;;;;;;;6269219;28;20139;-80
2021/12/28 00:46:07;;;;;;;29.35;12.95;;;;;;;;;;6244083;28;20519;-80
2021/12/28 00:49:10;;;;;;;38.80;16.40;;;;;;;;;;6227367;28;20104;-80
2021/12/28 00:52:11;;;;;;;35.13;16.48;;;;;;;;;;6227246;28;20502;-80
2021/12/28 00:55:15;;;;;;;32.65;14.45;;;;;;;;;;6234249;28;20099;-78
2021/12/28 00:58:18;;;;;;;40.08;13.77;;;;;;;;;;6251484;28;20051;-77
2021/12/28 01:01:19;;;;;;;31.57;12.20;;;;;;;;;;6224323;28;20045;-79
2021/12/28 01:04:21;;;;;;;31.67;12.07;;;;;;;;;;6243429;28;20472;-79
2021/12/28 01:07:23;;;;;;;32.53;11.50;;;;;;;;;;6244330;28;20107;-81
2021/12/28 01:10:31;;;;;;;41.00;14.73;;;;;;;;;;6243981;28;20569;-80
2021/12/28 01:13:32;;;;;;;32.85;12.02;;;;;;;;;;6260588;28;20152;-80
2021/12/28 01:16:34;;;;;;;29.17;10.55;;;;;;;;;;6240131;28;20037;-78
2021/12/28 01:19:36;;;;;;;28.58;11.02;;;;;;;;;;6201761;28;20229;-78
2021/12/28 01:22:39;;;;;;;36.60;12.25;;;;;;;;;;6226577;28;20129;-78
2021/12/28 01:25:40;;;;;;;25.80;10.65;;;;;;;;;;6241904;28;20041;-78
2021/12/28 01:28:42;;;;;;;27.58;9.55;;;;;;;;;;6210717;28;20052;-80
2021/12/28 01:31:44;;;;;;;33.95;12.02;;;;;;;;;;6237260;28;20049;-80
2021/12/28 01:34:45;;;;;;;37.40;14.30;;;;;;;;;;6226220;28;20037;-80
2021/12/28 01:37:48;;;;;;;93.97;34.22;;;;;;;;;;6220638;28;20434;-78
2021/12/28 01:40:50;;;;;;;86.13;28.85;;;;;;;;;;6219582;28;20044;-78
2021/12/28 01:43:56;;;;;;;45.03;17.98;;;;;;;;;;6240918;28;20176;-79
2021/12/28 01:46:58;;;;;;;36.22;13.15;;;;;;;;;;6229066;28;20125;-80
2021/12/28 01:49:59;;;;;;;43.05;15.95;;;;;;;;;;6236542;28;20041;-80
2021/12/28 01:53:03;;;;;;;37.38;12.05;;;;;;;;;;6266776;28;20580;-79
2021/12/28 01:56:06;;;;;;;;;;;;;;;;;;6249825;28;20120;-80
2021/12/28 01:59:09;;;;;;;32.83;8.63;;;;;;;;;;6266735;28;20340;-79
2021/12/28 02:02:10;;;;;;;29.38;8.93;;;;;;;;;;6264328;28;20128;-78
2021/12/28 02:05:12;;;;;;;30.60;8.88;;;;;;;;;;6268919;28;20045;-80
2021/12/28 02:08:15;;;;;;;37.50;9.80;;;;;;;;;;6256701;28;20045;-80
2021/12/28 02:11:16;;;;;;;39.03;10.65;;;;;;;;;;6224883;28;20069;-80
2021/12/28 02:14:18;;;;;;;52.97;18.75;;;;;;;;;;6246413;28;20048;-78
2021/12/28 02:17:20;;;;;;;36.53;12.00;;;;;;;;;;6267983;28;20037;-78
2021/12/28 02:20:22;;;;;;;43.25;13.60;;;;;;;;;;6235611;28;20055;-80
2021/12/28 02:23:24;;;;;;;36.45;10.80;;;;;;;;;;6208915;28;20762;-79
2021/12/28 02:26:26;;;;;;;38.30;9.98;;;;;;;;;;6219733;28;20046;-80
2021/12/28 02:29:28;;;;;;;39.50;9.55;;;;;;;;;;6253283;28;20040;-78
2021/12/28 02:32:30;;;;;;;37.42;10.18;;;;;;;;;;6253796;28;20048;-81
2021/12/28 02:35:32;;;;;;;40.80;10.43;;;;;;;;;;6267922;28;20045;-80
2021/12/28 02:38:34;;;;;;;39.15;10.70;;;;;;;;;;6262621;28;20091;-78
2021/12/28 02:41:36;;;;;;;35.60;10.77;;;;;;;;;;6213023;28;20045;-80
2021/12/28 02:44:37;;;;;;;47.33;10.70;;;;;;;;;;6257003;28;20522;-77
2021/12/28 02:47:42;;;;;;;45.13;10.20;;;;;;;;;;6281466;28;20049;-80
2021/12/28 02:50:48;;;;;;;42.50;10.77;;;;;;;;;;6234187;28;20041;-77
2021/12/28 02:53:50;;;;;;;110.30;14.32;;;;;;;;;;6263086;28;20099;-77
2021/12/28 02:56:51;;;;;;;48.13;11.95;;;;;;;;;;6219513;28;20042;-80
2021/12/28 02:59:53;;;;;;;62.42;13.45;;;;;;;;;;6250610;28;20037;-80
2021/12/28 03:02:55;;;;;;;78.22;12.90;;;;;;;;;;6260139;28;20120;-79
2021/12/28 03:06:00;;;;;;;86.07;14.05;;;;;;;;;;6222404;28;20042;-79
2021/12/28 03:09:05;;;;;;;80.10;11.85;;;;;;;;;;6211758;28;20061;-80
2021/12/28 03:12:09;;;;;;;114.28;17.05;;;;;;;;;;6245831;28;20049;-78
2021/12/28 03:15:10;;;;;;;71.45;15.18;;;;;;;;;;6249350;28;20053;-79
2021/12/28 03:18:12;;;;;;;55.72;12.95;;;;;;;;;;6239668;28;20042;-79
2021/12/28 03:21:15;;;;;;;68.78;11.90;;;;;;;;;;6225847;28;20125;-79
2021/12/28 03:24:18;;;;;;;63.40;12.43;;;;;;;;;;6243242;28;20402;-80
2021/12/28 03:27:20;;;;;;;82.80;19.67;;;;;;;;;;6228139;28;20040;-78
2021/12/28 03:30:22;;;;;;;64.72;13.45;;;;;;;;;;6227138;28;20067;-77
2021/12/28 03:33:25;;;;;;;62.67;16.75;;;;;;;;;;6235981;28;20048;-79
2021/12/28 03:36:28;;;;;;;56.58;15.07;;;;;;;;;;6253734;28;20052;-80
2021/12/28 03:39:30;;;;;;;59.92;13.70;;;;;;;;;;6227139;28;20037;-79
2021/12/28 03:42:32;;;;;;;75.55;14.05;;;;;;;;;;6236376;28;20045;-81
2021/12/28 03:45:34;;;;;;;51.38;13.00;;;;;;;;;;6246030;28;20123;-79
2021/12/28 03:48:37;;;;;;;43.20;12.43;;;;;;;;;;6238084;28;20037;-79
2021/12/28 03:51:39;;;;;;;39.88;11.48;;;;;;;;;;6243738;28;20550;-79
2021/12/28 03:54:40;;;;;;;46.72;11.15;;;;;;;;;;6224405;28;20052;-80
2021/12/28 03:57:42;;;;;;;59.83;10.05;;;;;;;;;;6270683;28;20052;-79
2021/12/28 04:00:47;;;;;;;39.30;10.02;;;;;;;;;;6245329;28;20047;-77
2021/12/28 04:03:49;;;;;;;48.20;10.63;;;;;;;;;;6216988;28;20045;-80
2021/12/28 04:06:51;;;;;;;43.05;9.85;;;;;;;;;;6245145;28;20037;-80
2021/12/28 04:12:55;;;;;;;43.95;9.85;;;;;;;;;;6269510;28;20176;-78
2021/12/28 04:15:56;;;;;;;52.80;11.27;;;;;;;;;;6268505;28;20100;-80
2021/12/28 04:18:59;;;;;;;48.92;10.98;;;;;;;;;;6245614;28;20053;-79
2021/12/28 04:22:03;;;;;;;54.78;11.50;;;;;;;;;;6244328;28;20045;-80
2021/12/28 04:25:06;;;;;;;116.57;13.43;;;;;;;;;;6215224;28;20519;-80
2021/12/28 04:28:07;;;;;;;43.75;9.60;;;;;;;;;;6269630;28;20029;-78
2021/12/28 04:31:10;;;;;;;54.50;10.68;;;;;;;;;;6250525;28;20043;-80
2021/12/28 04:34:12;;;;;;;56.83;11.00;;;;;;;;;;6267279;28;20056;-78
2021/12/28 04:37:13;;;;;;;58.03;10.80;;;;;;;;;;6251780;28;20473;-80
2021/12/28 04:40:15;;;;;;;51.95;9.85;;;;;;;;;;6269510;28;20155;-80
2021/12/28 04:43:17;;;;;;;46.28;9.75;;;;;;;;;;6242207;28;20179;-79
2021/12/28 04:46:18;;;;;;;39.50;9.13;;;;;;;;;;6235741;28;20046;-79
2021/12/28 04:49:23;;;;;;;35.40;8.77;;;;;;;;;;6240973;28;20036;-81
2021/12/28 04:52:25;;;;;;;40.47;9.73;;;;;;;;;;6245688;28;20509;-79
2021/12/28 04:55:27;;;;;;;36.78;9.80;;;;;;;;;;6234102;28;20036;-78
2021/12/28 04:58:29;;;;;;;42.65;9.15;;;;;;;;;;6249521;28;20037;-81
2021/12/28 05:01:30;;;;;;;37.28;9.23;;;;;;;;;;6223027;28;20128;-80
2021/12/28 05:04:32;;;;;;;38.13;8.73;;;;;;;;;;6186660;28;20046;-80
2021/12/28 05:07:34;;;;;;;37.78;8.27;;;;;;;;;;6219195;28;20030;-77
2021/12/28 05:10:36;;;;;;;42.70;8.98;;;;;;;;;;6198620;28;20033;-79
2021/12/28 05:13:37;;;;;;;34.33;10.25;;;;;;;;;;6266729;28;20063;-80
2021/12/28 05:16:39;;;;;;;43.70;11.20;;;;;;;;;;6254719;28;20046;-79
2021/12/28 05:19:41;;;;;;;41.17;11.05;;;;;;;;;;6225491;28;20049;-80
2021/12/28 05:22:42;;;;;;;37.85;9.60;;;;;;;;;;6241822;28;20046;-80
2021/12/28 05:25:44;;;;;;;31.25;9.35;;;;;;;;;;6235908;28;20045;-80
2021/12/28 05:28:46;;;;;;;36.63;9.20;;;;;;;;;;6219689;28;20049;-81
2021/12/28 05:31:47;;;;;;;39.95;9.68;;;;;;;;;;6224056;28;20045;-79
2021/12/28 05:34:49;;;;;;;40.83;12.30;;;;;;;;;;6241401;28;20262;-81
2021/12/28 05:37:51;;;;;;;28.38;7.80;;;;;;;;;;6208952;28;20055;-80
2021/12/28 05:40:52;;;;;;;29.88;8.68;;;;;;;;;;6242627;28;20037;-79
2021/12/28 05:43:54;;;;;;;29.38;8.63;;;;;;;;;;6223705;28;20778;-80
2021/12/28 05:46:56;;;;;;;36.45;8.88;;;;;;;;;;6252707;28;20076;-79
2021/12/28 05:49:58;;;;;;;25.25;8.27;;;;;;;;;;6199298;28;20046;-79
2021/12/28 05:52:59;;;;;;;33.47;9.02;;;;;;;;;;6216592;28;20686;-79
2021/12/28 05:56:01;;;;;;;27.98;8.30;;;;;;;;;;6221786;28;20042;-80
2021/12/28 05:59:03;;;;;;;26.15;7.65;;;;;;;;;;6242243;28;20208;-78
2021/12/28 06:02:05;;;;;;;28.77;8.90;;;;;;;;;;6239455;28;20034;-79
2021/12/28 06:05:09;;;;;;;34.25;10.27;;;;;;;;;;6248366;28;20575;-79
2021/12/28 06:08:10;;;;;;;30.45;10.80;;;;;;;;;;6265995;28;20053;-80
2021/12/28 06:11:31;;;;;;;29.77;9.27;;;;;;;;;;6251471;28;20763;-81
2021/12/28 06:14:33;;;;;;;36.90;9.73;;;;;;;;;;6245696;28;20053;-80
2021/12/28 06:17:35;;;;;;;30.58;8.88;;;;;;;;;;6249239;28;20067;-80
2021/12/28 06:20:36;;;;;;;28.38;9.68;;;;;;;;;;6199745;28;20053;-80
2021/12/28 06:23:38;;;;;;;27.58;9.20;;;;;;;;;;6236510;28;20572;-78
2021/12/28 06:26:39;;;;;;;27.58;9.07;;;;;;;;;;6230515;28;20086;-78
2021/12/28 06:29:41;;;;;;;27.08;10.52;;;;;;;;;;6226862;28;20052;-82
2021/12/28 06:32:43;;;;;;;29.13;9.95;;;;;;;;;;6231052;28;20045;-79
2021/12/28 06:35:44;;;;;;;29.88;10.20;;;;;;;;;;6227762;28;20087;-80
2021/12/28 06:38:46;;;;;;;31.30;10.70;;;;;;;;;;6225175;28;20099;-80
2021/12/28 06:41:48;;;;;;;38.60;10.50;;;;;;;;;;6241649;28;20053;-80
2021/12/28 06:44:52;;;;;;;27.55;8.85;;;;;;;;;;6237767;28;20614;-78
2021/12/28 06:47:53;;;;;;;30.60;9.35;;;;;;;;;;6205632;28;20053;-78
2021/12/28 06:50:55;;;;;;;28.17;9.40;;;;;;;;;;6252245;28;20037;-80
2021/12/28 06:53:57;;;;;;;20.75;8.02;;;;;;;;;;6231442;28;20049;-80
2021/12/28 06:56:58;;;;;;;29.15;9.38;;;;;;;;;;6235542;28;20048;-80
2021/12/28 07:00:00;;;;;;;24.60;9.20;;;;;;;;;;6245923;28;20048;-79
2021/12/28 07:03:04;;;;;;;23.73;9.50;;;;;;;;;;6241891;28;20143;-77
2021/12/28 07:06:10;;;;;;;24.15;9.13;;;;;;;;;;6250941;28;20072;-78
2021/12/28 07:09:11;;;;;;;23.52;8.05;;;;;;;;;;6248875;28;20055;-81
2021/12/28 07:12:13;;;;;;;27.77;10.05;;;;;;;;;;6265534;28;20052;-80
2021/12/28 07:15:15;;;;;;;27.73;9.75;;;;;;;;;;6249793;28;20045;-80
2021/12/28 07:18:16;;;;;;;27.90;10.27;;;;;;;;;;6241189;28;20071;-79
2021/12/28 07:21:18;;;;;;;24.75;10.40;;;;;;;;;;6231051;28;20422;-78
2021/12/28 07:24:19;;;;;;;31.83;11.50;;;;;;;;;;6252553;28;20152;-80
2021/12/28 07:27:21;;;;;;;21.25;9.30;;;;;;;;;;6223222;28;20047;-78
2021/12/28 07:30:23;;;;;;;24.17;9.73;;;;;;;;;;6221082;28;20162;-80
2021/12/28 07:33:25;;;;;;;26.88;9.32;;;;;;;;;;6222531;28;20108;-79
2021/12/28 07:36:27;;;;;;;21.60;8.57;;;;;;;;;;6242283;28;20048;-79
2021/12/28 07:39:29;;;;;;;14.63;5.50;;;;;;;;;;6221653;28;20037;-79
2021/12/28 07:42:31;;;;;;;14.10;5.32;;;;;;;;;;6233641;28;20045;-78
2021/12/28 07:45:32;;;;;;;15.43;5.80;;;;;;;;;;6248812;28;20033;-82
2021/12/28 07:48:34;;;;;;;11.48;5.55;;;;;;;;;;6248308;28;21078;-81
2021/12/28 07:51:36;;;;;;;13.75;5.95;;;;;;;;;;6249502;28;20051;-82
2021/12/28 07:54:38;;;;;;;13.15;5.85;;;;;;;;;;6252288;28;20490;-82
2021/12/28 07:57:39;;;;;;;10.02;4.72;;;;;;;;;;6235428;28;20112;-80
2021/12/28 08:00:41;;;;;;;9.32;4.60;;;;;;;;;;6261326;28;20128;-82
2021/12/28 08:03:43;;;;;;;11.65;5.20;;;;;;;;;;6248022;28;20052;-79
2021/12/28 08:06:45;;;;;;;8.57;4.65;;;;;;;;;;6253443;28;20067;-82
2021/12/28 08:09:46;;;;;;;9.25;5.63;;;;;;;;;;6265675;28;20045;-81
2021/12/28 08:12:50;;;;;;;10.15;4.85;;;;;;;;;;6247854;28;20105;-82
2021/12/28 08:15:53;;;;;;;8.40;4.63;;;;;;;;;;6218469;28;20123;-81
2021/12/28 08:18:57;;;;;;;7.85;4.30;;;;;;;;;;6233824;28;20524;-81
2021/12/28 08:22:18;;;;;;;9.52;4.07;;;;;;;;;;6251689;28;20521;-80
2021/12/28 08:25:20;;;;;;;11.13;4.73;;;;;;;;;;6224915;28;20047;-81
2021/12/28 08:28:22;;;;;;;8.27;4.50;;;;;;;;;;6246547;28;20090;-80
2021/12/28 08:31:25;;;;;;;8.57;4.30;;;;;;;;;;6249864;28;20109;-82
2021/12/28 08:34:27;;;;;;;;;;;;;;;;;;6226545;28;20097;-80
2021/12/28 08:37:29;;;;;;;6.97;3.40;;;;;;;;;;6210803;28;20011;-82
2021/12/28 08:40:31;;;;;;;6.05;4.00;;;;;;;;;;6216133;28;20518;-82
2021/12/28 08:43:32;;;;;;;6.20;3.58;;;;;;;;;;6242947;28;20045;-79
2021/12/28 08:46:34;;;;;;;7.00;4.28;;;;;;;;;;6205024;28;20411;-81
2021/12/28 08:49:36;;;;;;;8.95;4.50;;;;;;;;;;6233737;28;20056;-81
2021/12/28 08:52:38;;;;;;;7.93;3.67;;;;;;;;;;6231635;28;20178;-82
2021/12/28 08:55:47;;;;;;;10.65;4.57;;;;;;;;;;6227784;28;20048;-80
2021/12/28 08:58:50;;;;;;;8.02;4.25;;;;;;;;;;6262405;28;20104;-80
2021/12/28 09:01:54;;;;;;;17.55;7.75;;;;;;;;;;6248443;28;20068;-80
2021/12/28 09:04:56;;;;;;;8.15;4.45;;;;;;;;;;6243803;28;20108;-82
2021/12/28 09:07:58;;;;;;;10.48;5.88;;;;;;;;;;6233747;28;20056;-81
2021/12/28 09:11:03;;;;;;;6.72;4.63;;;;;;;;;;6247514;28;20045;-81
2021/12/28 09:14:04;;;;;;;8.73;4.55;;;;;;;;;;6230818;28;20038;-82
2021/12/28 09:17:07;;;;;;;23.40;10.85;;;;;;;;;;6252452;28;20068;-80
2021/12/28 09:20:16;;;;;;;10.65;4.45;;;;;;;;;;6266669;28;20045;-82
2021/12/28 09:23:38;;;;;;;11.48;7.97;;;;;;;;;;6232823;28;20128;-79
2021/12/28 09:27:00;;;;;;;5.82;3.83;;;;;;;;;;6247919;28;20149;-79
2021/12/28 09:30:03;;;;;;;8.07;4.70;;;;;;;;;;6246478;28;20052;-80
2021/12/28 09:33:05;;;;;;;20.38;13.18;;;;;;;;;;6245324;28;20114;-77
2021/12/28 09:36:09;;;;;;;14.38;7.80;;;;;;;;;;6242417;28;20048;-80
2021/12/28 09:39:11;;;;;;;15.57;8.38;;;;;;;;;;6243263;28;20136;-80
2021/12/28 09:42:13;;;;;;;11.68;5.45;;;;;;;;;;6239428;28;20056;-81
2021/12/28 09:45:17;;;;;;;7.68;5.35;;;;;;;;;;6264774;28;20073;-78
2021/12/28 09:48:19;;;;;;;9.43;4.50;;;;;;;;;;6247465;28;20048;-80
2021/12/28 09:51:21;;;;;;;6.75;4.43;;;;;;;;;;6264475;28;20045;-80
2021/12/28 09:54:25;;;;;;;4.53;2.90;;;;;;;;;;6261812;28;20068;-79
2021/12/28 09:57:28;;;;;;;4.80;2.88;;;;;;;;;;6267322;28;20041;-80
2021/12/28 10:00:30;;;;;;;6.07;2.88;;;;;;;;;;6260265;28;20033;-81
2021/12/28 10:03:47;;;;;;;3.78;2.22;;;;;;;;;;6230716;28;20044;-81
2021/12/28 10:06:49;;;;;;;6.43;3.00;;;;;;;;;;6252076;28;20111;-80
2021/12/28 10:09:51;;;;;;;5.93;3.15;;;;;;;;;;6234494;28;20687;-81
2021/12/28 10:12:55;;;;;;;5.95;3.45;;;;;;;;;;6237300;28;20408;-80
2021/12/28 10:15:57;;;;;;;4.15;2.13;;;;;;;;;;6234206;28;20073;-81
2021/12/28 10:19:47;;;;;;;5.95;2.50;;;;;;;;;;6246538;28;20171;-81
2021/12/28 10:22:56;;;;;;;3.50;2.33;;;;;;;;;;6205922;28;20118;-80
2021/12/28 10:26:05;;;;;;;11.50;4.57;;;;;;;;;;6261915;28;20053;-79
2021/12/28 10:29:30;;;;;;;8.45;4.75;;;;;;;;;;6236294;28;20067;-80
2021/12/28 10:32:33;;;;;;;5.72;2.90;;;;;;;;;;6231356;28;20053;-81
2021/12/28 10:35:41;;;;;;;5.68;3.13;;;;;;;;;;6255690;28;20049;-82
2021/12/28 10:38:50;;;;;;;3.80;2.08;;;;;;;;;;6231893;28;20383;-80
2021/12/28 10:41:52;;;;;;;3.03;2.60;;;;;;;;;;6241359;28;20068;-79
2021/12/28 10:45:00;;;;;;;7.90;5.35;;;;;;;;;;6235939;28;20045;-81
2021/12/28 10:48:10;;;;;;;2.55;1.50;;;;;;;;;;6252082;28;20088;-80
2021/12/28 10:51:21;;;;;;;2.58;1.70;;;;;;;;;;6250285;28;20126;-81
2021/12/28 10:54:23;;;;;;;4.30;2.47;;;;;;;;;;6272528;28;20048;-81
2021/12/28 10:57:38;;;;;;;10.50;3.78;;;;;;;;;;6269258;28;20087;-80
2021/12/28 11:00:43;;;;;;;4.85;2.33;;;;;;;;;;6247665;28;20049;-79
2021/12/28 11:03:51;;;;;;;3.80;2.95;;;;;;;;;;6239801;28;20041;-81
2021/12/28 11:06:53;;;;;;;4.78;3.70;;;;;;;;;;6254941;28;20067;-78
2021/12/28 11:10:02;;;;;;;3.30;2.10;;;;;;;;;;6264272;28;20064;-78
2021/12/28 11:13:03;;;;;;;7.60;4.20;;;;;;;;;;6269236;28;20073;-81
2021/12/28 11:16:08;;;;;;;3.30;2.00;;;;;;;;;;6246576;28;20071;-79
2021/12/28 11:19:10;;;;;;;1.75;1.63;;;;;;;;;;6255359;28;20148;-81
2021/12/28 11:22:14;;;;;;;2.33;1.83;;;;;;;;;;6264219;28;20505;-81
2021/12/28 11:25:16;;;;;;;;;;;;;;;;;;6234561;28;20048;-79
2021/12/28 11:28:21;;;;;;;4.57;2.75;;;;;;;;;;6240444;28;20054;-80
2021/12/28 11:31:34;;;;;;;6.45;3.35;;;;;;;;;;6247015;28;20052;-81
2021/12/28 11:34:39;;;;;;;6.65;3.33;;;;;;;;;;6265064;28;20051;-79
2021/12/28 11:37:43;;;;;;;8.80;4.38;;;;;;;;;;6259708;28;20119;-81
2021/12/28 11:40:45;;;;;;;10.18;7.53;;;;;;;;;;6271216;28;20167;-81
2021/12/28 11:43:48;;;;;;;4.07;2.30;;;;;;;;;;6244183;28;20498;-80
2021/12/28 11:46:51;;;;;;;9.63;4.50;;;;;;;;;;6263224;28;20487;-81
2021/12/28 11:49:56;;;;;;;5.72;3.72;;;;;;;;;;6251805;28;20053;-79
2021/12/28 11:52:58;;;;;;;5.63;3.72;;;;;;;;;;6241559;28;20048;-81
2021/12/28 11:56:00;;;;;;;6.25;3.75;;;;;;;;;;6259388;28;20068;-81
2021/12/28 11:59:06;;;;;;;28.98;17.42;;;;;;;;;;6235384;28;20052;-78
2021/12/28 12:02:11;;;;;;;3.83;2.58;;;;;;;;;;6244957;28;20052;-77
2021/12/28 12:05:25;;;;;;;8.93;5.55;;;;;;;;;;6245098;28;20125;-78
2021/12/28 12:08:27;;;;;;;2.42;1.90;;;;;;;;;;6244983;28;20048;-78
2021/12/28 12:11:29;;;;;;;85.55;34.35;;;;;;;;;;6244289;28;20041;-80
2021/12/28 12:14:52;;;;;;;11.73;10.50;;;;;;;;;;6228497;28;20048;-79
2021/12/28 12:18:00;;;;;;;23.13;11.10;;;;;;;;;;6249113;28;20044;-80
2021/12/28 12:21:05;;;;;;;2.22;1.95;;;;;;;;;;6253767;28;20123;-81
2021/12/28 12:24:06;;;;;;;4.25;2.30;;;;;;;;;;6248563;28;20041;-79
2021/12/28 12:27:37;;;;;;;1.70;1.45;;;;;;;;;;6258833;28;20110;-80
2021/12/28 12:30:52;;;;;;;1.80;1.70;;;;;;;;;;6238531;28;20066;-79
2021/12/28 12:33:55;;;;;;;2.40;1.42;;;;;;;;;;6258959;28;20108;-79
2021/12/28 12:36:57;;;;;;;3.63;2.30;;;;;;;;;;6242846;28;20553;-81
2021/12/28 12:40:00;;;;;;;2.20;1.73;;;;;;;;;;6236172;28;20037;-80
2021/12/28 12:43:13;;;;;;;4.50;2.15;;;;;;;;;;6252136;28;20040;-79
2021/12/28 12:46:39;;;;;;;1.88;1.58;;;;;;;;;;6243006;28;20045;-79
2021/12/28 12:49:41;;;;;;;2.13;1.65;;;;;;;;;;6255004;28;20124;-79
2021/12/28 12:52:43;;;;;;;2.42;1.55;;;;;;;;;;6259179;28;20120;-80
2021/12/28 12:55:45;;;;;;;4.35;2.50;;;;;;;;;;6221701;28;20510;-80
2021/12/28 12:58:48;;;;;;;1.98;1.52;;;;;;;;;;6221699;28;20176;-80
2021/12/28 13:01:52;;;;;;;3.22;1.60;;;;;;;;;;6216539;28;20037;-81
2021/12/28 13:04:57;;;;;;;3.30;2.00;;;;;;;;;;6249998;28;20072;-80
2021/12/28 13:08:09;;;;;;;2.80;2.10;;;;;;;;;;6265191;28;20043;-79
2021/12/28 13:11:10;;;;;;;9.18;5.45;;;;;;;;;;6247084;28;20055;-79
2021/12/28 13:14:12;;;;;;;6.28;3.33;;;;;;;;;;6242585;28;20045;-78
2021/12/28 13:17:17;;;;;;;7.90;5.43;;;;;;;;;;6249156;28;20045;-81
2021/12/28 13:20:22;;;;;;;2.20;1.77;;;;;;;;;;6221756;28;20056;-81
2021/12/28 13:23:23;;;;;;;6.18;4.72;;;;;;;;;;6221234;28;20124;-79
2021/12/28 13:26:26;;;;;;;8.40;6.82;;;;;;;;;;6243874;28;20184;-80
2021/12/28 13:29:36;;;;;;;2.40;2.20;;;;;;;;;;6227335;28;20041;-81
2021/12/28 13:32:41;;;;;;;4.78;3.28;;;;;;;;;;6265621;28;20119;-80
2021/12/28 13:35:45;;;;;;;4.43;3.85;;;;;;;;;;6235102;28;20055;-80
2021/12/28 13:38:47;;;;;;;11.85;9.05;;;;;;;;;;6253824;28;20079;-80
2021/12/28 13:41:50;;;;;;;6.13;3.95;;;;;;;;;;6241283;28;20045;-81
2021/12/28 13:44:51;;;;;;;1.55;1.30;;;;;;;;;;6242633;28;20778;-81
2021/12/28 13:47:53;;;;;;;1.85;1.23;;;;;;;;;;6234482;28;20048;-81
2021/12/28 13:51:05;;;;;;;2.17;1.30;;;;;;;;;;6243194;28;20045;-79
2021/12/28 13:54:07;;;;;;;3.47;1.80;;;;;;;;;;6246476;28;20083;-79
2021/12/28 13:57:09;;;;;;;1.17;1.02;;;;;;;;;;6259680;28;20694;-78
2021/12/28 14:00:13;;;;;;;1.90;1.10;;;;;;;;;;6242080;28;20128;-79
2021/12/28 14:03:16;;;;;;;2.75;0.95;;;;;;;;;;6249983;28;20053;-81
2021/12/28 14:06:18;;;;;;;1.20;1.10;;;;;;;;;;6253503;28;20056;-82
2021/12/28 14:09:28;;;;;;;3.78;1.88;;;;;;;;;;6233560;28;20563;-80
2021/12/28 14:12:29;;;;;;;2.80;1.75;;;;;;;;;;6261685;28;20065;-79
2021/12/28 14:15:47;;;;;;;1.80;1.27;;;;;;;;;;6253488;28;20139;-81
2021/12/28 14:18:52;;;;;;;6.53;3.67;;;;;;;;;;6260061;28;20048;-81
2021/12/28 14:21:54;;;;;;;1.75;0.60;;;;;;;;;;6271263;28;20041;-79
2021/12/28 14:24:57;;;;;;;10.45;6.20;;;;;;;;;;6248319;28;20102;-81
2021/12/28 14:27:58;;;;;;;3.60;0.60;;;;;;;;;;6247214;28;20047;-80
2021/12/28 14:31:15;;;;;;;5.53;1.10;;;;;;;;;;6252423;28;20526;-80
2021/12/28 14:34:28;;;;;;;4.78;0.88;;;;;;;;;;6236809;28;20067;-81
2021/12/28 14:37:35;;;;;;;5.73;1.03;;;;;;;;;;6265343;28;20105;-79
2021/12/28 14:40:38;;;;;;;5.18;0.93;;;;;;;;;;6255256;28;20471;-81
2021/12/28 14:43:39;;;;;;;6.38;1.17;;;;;;;;;;6271013;28;20052;-80
2021/12/28 14:46:42;;;;;;;10.25;1.55;;;;;;;;;;6241866;28;20042;-83
2021/12/28 14:49:45;;;;;;;3.03;0.73;;;;;;;;;;6235079;28;20045;-77
2021/12/28 14:52:52;;;;;;;5.47;1.25;;;;;;;;;;6251091;28;20065;-80
2021/12/28 14:55:57;;;;;;;5.93;1.00;;;;;;;;;;6255681;28;20044;-79
2021/12/28 14:58:58;;;;;;;5.85;0.98;;;;;;;;;;6253867;28;20564;-81
2021/12/28 15:02:02;;;;;;;11.07;1.73;;;;;;;;;;6235846;28;20108;-81
2021/12/28 15:05:05;;;;;;;7.80;1.10;;;;;;;;;;6251935;28;20037;-79
2021/12/28 15:08:10;;;;;;;8.73;1.42;;;;;;;;;;6252341;28;20112;-80
2021/12/28 15:11:12;;;;;;;12.05;1.65;;;;;;;;;;6247305;28;20053;-80
2021/12/28 15:14:14;;;;;;;8.87;1.60;;;;;;;;;;6246703;28;20132;-79
2021/12/28 15:17:16;;;;;;;11.55;1.67;;;;;;;;;;6241543;28;20053;-81
2021/12/28 15:20:18;;;;;;;7.63;1.98;;;;;;;;;;6247495;28;20045;-82
2021/12/28 15:23:20;;;;;;;8.95;1.13;;;;;;;;;;6268035;28;20128;-81
2021/12/28 15:26:21;;;;;;;11.38;2.47;;;;;;;;;;6228584;28;20048;-80
2021/12/28 15:29:24;;;;;;;6.70;1.20;;;;;;;;;;6245134;28;20052;-80
2021/12/28 15:32:27;;;;;;;8.88;1.50;;;;;;;;;;6238611;28;20123;-82
2021/12/28 15:35:37;;;;;;;13.13;2.13;;;;;;;;;;6248606;28;20045;-81
2021/12/28 15:38:44;;;;;;;5.65;1.52;;;;;;;;;;6250882;28;20426;-79
2021/12/28 15:41:49;;;;;;;10.23;1.50;;;;;;;;;;6266294;28;20055;-80
2021/12/28 15:44:50;;;;;;;4.40;1.23;;;;;;;;;;6241895;28;20040;-82
2021/12/28 15:47:57;;;;;;;8.43;1.20;;;;;;;;;;6255588;28;20056;-80
2021/12/28 15:50:59;;;;;;;12.23;1.88;;;;;;;;;;6228108;28;20045;-77
2021/12/28 15:54:01;;;;;;;9.10;1.30;;;;;;;;;;6240152;28;20049;-78
2021/12/28 15:57:03;;;;;;;7.80;1.45;;;;;;;;;;6240205;28;20161;-80
2021/12/28 16:00:08;;;;;;;8.18;1.45;;;;;;;;;;6250093;28;20040;-80
2021/12/28 16:03:10;;;;;;;11.77;1.40;;;;;;;;;;6222060;28;20041;-78
2021/12/28 16:06:15;;;;;;;8.90;2.13;;;;;;;;;;6210863;28;20121;-80
2021/12/28 16:09:17;;;;;;;11.07;1.90;;;;;;;;;;6245302;28;20414;-79
2021/12/28 16:12:18;;;;;;;10.95;1.85;;;;;;;;;;6244552;28;20055;-78
2021/12/28 16:15:20;;;;;;;10.10;1.40;;;;;;;;;;6245892;28;20053;-78
2021/12/28 16:18:22;;;;;;;6.53;1.65;;;;;;;;;;6242389;28;20057;-79
2021/12/28 16:21:24;;;;;;;7.38;1.60;;;;;;;;;;6261578;28;20490;-81
2021/12/28 16:24:26;;;;;;;8.45;1.52;;;;;;;;;;6259399;28;20455;-80
2021/12/28 16:27:28;;;;;;;16.03;2.87;;;;;;;;;;6259057;28;20057;-77
2021/12/28 16:30:30;;;;;;;6.07;2.25;;;;;;;;;;6223513;28;20388;-76
2021/12/28 16:33:34;;;;;;;7.90;1.60;;;;;;;;;;6232019;28;20124;-78
2021/12/28 16:36:39;;;;;;;8.18;1.50;;;;;;;;;;6243289;28;20040;-77
2021/12/28 16:39:41;;;;;;;8.68;1.40;;;;;;;;;;6249163;28;20052;-79
2021/12/28 16:42:43;;;;;;;5.47;1.35;;;;;;;;;;6255655;28;20041;-78
2021/12/28 16:45:44;;;;;;;10.43;1.40;;;;;;;;;;6241679;28;20490;-78
2021/12/28 16:48:47;;;;;;;12.98;1.77;;;;;;;;;;6234042;28;20680;-78
2021/12/28 16:51:50;;;;;;;9.83;1.67;;;;;;;;;;6222272;28;20078;-78
2021/12/28 16:54:52;;;;;;;;;;;;;;;;;;6241110;28;20037;-80
2021/12/28 16:57:53;;;;;;;6.95;1.42;;;;;;;;;;6244039;28;19932;-80
2021/12/28 17:00:57;;;;;;;8.05;1.80;;;;;;;;;;6213151;28;20502;-79
2021/12/28 17:04:01;;;;;;;8.70;2.65;;;;;;;;;;6239020;28;20495;-79
2021/12/28 17:07:04;;;;;;;9.73;3.55;;;;;;;;;;6241371;28;20104;-79
2021/12/28 17:10:07;;;;;;;12.40;3.08;;;;;;;;;;6243798;28;20494;-79
2021/12/28 17:13:13;;;;;;;;;;;;;;;;;;6233261;28;20184;-79
2021/12/28 17:16:18;;;;;;;8.82;1.77;;;;;;;;;;6204845;28;19921;-78
2021/12/28 17:19:20;;;;;;;8.60;1.70;;;;;;;;;;6218285;28;20127;-77
2021/12/28 17:22:22;;;;;;;14.77;2.13;;;;;;;;;;6257980;28;20037;-79
2021/12/28 17:25:26;;;;;;;11.05;2.83;;;;;;;;;;6225259;28;20479;-77
2021/12/28 17:28:28;;;;;;;7.07;1.38;;;;;;;;;;6232664;28;20053;-76
2021/12/28 17:31:30;;;;;;;8.40;1.98;;;;;;;;;;6219629;28;20052;-78
2021/12/28 17:34:32;;;;;;;13.90;2.75;;;;;;;;;;6216110;28;20049;-80
2021/12/28 17:37:33;;;;;;;10.82;3.00;;;;;;;;;;6240741;28;20049;-78
2021/12/28 17:40:37;;;;;;;11.00;2.90;;;;;;;;;;6245408;28;20080;-79
2021/12/28 17:43:39;;;;;;;12.50;2.30;;;;;;;;;;6235129;28;20443;-80
2021/12/28 17:46:41;;;;;;;14.55;3.22;;;;;;;;;;6228216;28;20061;-80
2021/12/28 17:49:43;;;;;;;12.02;2.78;;;;;;;;;;6241841;28;20824;-79
2021/12/28 17:52:45;;;;;;;24.40;9.50;;;;;;;;;;6241760;28;20049;-79
2021/12/28 17:55:47;;;;;;;15.93;3.10;;;;;;;;;;6239231;28;20454;-78
2021/12/28 17:58:49;;;;;;;11.38;1.90;;;;;;;;;;6234593;28;20057;-77
2021/12/28 18:01:51;;;;;;;12.45;2.00;;;;;;;;;;6233888;28;20053;-78
2021/12/28 18:04:52;;;;;;;14.40;2.22;;;;;;;;;;6242584;28;20041;-78
2021/12/28 18:07:55;;;;;;;13.18;2.28;;;;;;;;;;6227561;28;20045;-78
2021/12/28 18:10:57;;;;;;;12.40;2.50;;;;;;;;;;6220926;28;20060;-79
2021/12/28 18:13:59;;;;;;;12.02;1.70;;;;;;;;;;6225236;28;20053;-80